Time;durP1;ratioP1;P1;durP2;ratioP2;P2;SDS_P1;SDS_P2;PMS_P1;PMS_P2;Temp;Humidity;BMP_temperature;BMP_pressure;BME280_temperature;BME280_humidity;BME280_pressure;Samples;Min_cycle;Max_cycle;Signal;HPM_P1;HPM_P2
2023/08/22 00:01:28;;;;;;;;;;;;;;;22.16;43.13;101128.97;4881820;28;98037;-73
2023/08/22 00:03:56;;;;;;;;;;;;;;;22.18;43.33;101128.66;4883634;28;98506;-71
2023/08/22 00:06:24;;;;;;;;;;;;;;;22.20;43.04;101129.94;4884756;28;99571;-71
2023/08/22 00:08:50;;;;;;;;;;;;;;;22.20;43.05;101121.69;4866383;28;98305;-72
2023/08/22 00:11:19;;;;;;;;;;;;;;;22.20;43.08;101123.63;4880814;28;99588;-72
2023/08/22 00:13:46;;;;;;;;;;;;;;;22.20;43.09;101116.19;4883134;28;98429;-70
2023/08/22 00:16:12;;;;;;;;;;;;;;;22.20;43.09;101113.44;4864096;28;98252;-70
2023/08/22 00:18:38;;;;;;;;;;;;;;;22.19;43.02;101113.78;4866623;28;98277;-72
2023/08/22 00:21:05;;;;;;;;;;;;;;;22.16;43.16;101117.19;4866820;28;99083;-73
2023/08/22 00:23:31;;;;;;;;;;;;;;;22.12;43.00;101118.97;4864635;28;98314;-71
2023/08/22 00:25:58;;;;;;;;;;;;;;;22.09;43.09;101125.13;4861498;28;98528;-71
2023/08/22 00:28:24;;;;;;;;;;;;;;;22.07;43.25;101130.94;4880553;28;98842;-71
2023/08/22 00:30:53;;;;;;;;;;;;;;;22.06;43.23;101123.84;4869840;28;98186;-73
2023/08/22 00:33:19;;;;;;;;;;;;;;;22.05;43.11;101124.97;4862705;28;98333;-73
2023/08/22 00:35:45;;;;;;;;;;;;;;;22.02;43.24;101114.66;4885950;28;98110;-73
2023/08/22 00:38:12;;;;;;;;;;;;;;;21.99;43.16;101107.88;4891892;28;98353;-71
2023/08/22 00:40:39;;;;;;;;;;;;;;;21.97;43.03;101104.66;4887307;28;98079;-71
2023/08/22 00:43:05;;;;;;;;;;;;;;;21.94;43.18;101102.56;4868007;28;98256;-71
2023/08/22 00:45:32;;;;;;;;;;;;;;;21.92;43.20;101101.28;4866327;28;99057;-71
2023/08/22 00:47:58;;;;;;;;;;;;;;;21.87;43.27;101098.72;4850642;28;98000;-71
2023/08/22 00:50:24;;;;;;;;;;;;;;;21.81;43.36;101090.69;4848820;28;104169;-73
2023/08/22 00:52:50;;;;;;;;;;;;;;;21.76;43.11;101087.28;4866604;28;98007;-70
2023/08/22 00:55:17;;;;;;;;;;;;;;;21.72;43.28;101097.31;4864692;28;99279;-72
2023/08/22 00:57:44;;;;;;;;;;;;;;;21.69;43.33;101093.31;4864213;28;100034;-73
2023/08/22 01:00:10;;;;;;;;;;;;;;;21.63;43.35;101096.53;4851026;28;99242;-71
2023/08/22 01:02:40;;;;;;;;;;;;;;;21.56;43.45;101080.56;4863357;28;98395;-73
2023/08/22 01:05:07;;;;;;;;;;;;;;;21.52;43.40;101079.63;4859273;28;98063;-71
2023/08/22 01:07:51;;;;;;;;;;;;;;;21.46;43.28;101072.72;4865439;28;98681;-71
2023/08/22 01:10:27;;;;;;;;;;;;;;;21.43;43.38;101081.59;4897768;28;98354;-71
2023/08/22 01:13:01;;;;;;;;;;;;;;;21.38;43.52;101074.34;4860583;28;98213;-73
2023/08/22 01:15:29;;;;;;;;;;;;;;;21.33;43.71;101078.03;4883407;28;100153;-72
2023/08/22 01:17:57;;;;;;;;;;;;;;;21.30;43.37;101078.66;4887443;28;97916;-72
2023/08/22 01:20:24;;;;;;;;;;;;;;;21.28;43.32;101080.13;4882967;28;98002;-71
2023/08/22 01:22:51;;;;;;;;;;;;;;;21.24;43.50;101070.94;4882495;28;98001;-70
2023/08/22 01:25:18;;;;;;;;;;;;;;;21.22;43.51;101074.00;4879148;28;100338;-72
2023/08/22 01:27:50;;;;;;;;;;;;;;;21.20;43.54;101069.97;4863022;28;98612;-70
2023/08/22 01:30:20;;;;;;;;;;;;;;;21.18;43.46;101070.31;4897350;28;98023;-72
2023/08/22 01:32:48;;;;;;;;;;;;;;;21.16;43.39;101069.81;4878084;28;98226;-70
2023/08/22 01:35:15;;;;;;;;;;;;;;;21.16;43.42;101067.06;4863990;28;98558;-73
2023/08/22 01:37:41;;;;;;;;;;;;;;;21.16;43.45;101058.03;4867464;28;98417;-70
2023/08/22 01:40:08;;;;;;;;;;;;;;;21.15;43.35;101042.75;4880900;28;99211;-70
2023/08/22 01:42:35;;;;;;;;;;;;;;;21.15;43.41;101053.69;4863427;28;98221;-70
2023/08/22 01:45:01;;;;;;;;;;;;;;;21.14;43.41;101046.59;4864951;28;100849;-70
2023/08/22 01:47:27;;;;;;;;;;;;;;;21.14;43.46;101043.84;4852954;28;98559;-73
2023/08/22 01:49:53;;;;;;;;;;;;;;;21.13;43.42;101034.81;4884588;28;98521;-70
2023/08/22 01:52:20;;;;;;;;;;;;;;;21.14;43.42;101038.38;4883605;28;98367;-71
2023/08/22 01:54:48;;;;;;;;;;;;;;;21.12;43.43;101033.22;4883412;28;98730;-70
2023/08/22 01:57:14;;;;;;;;;;;;;;;21.12;43.43;101037.91;4868724;28;98600;-72
2023/08/22 01:59:41;;;;;;;;;;;;;;;21.11;43.51;101039.03;4853219;28;98082;-73
2023/08/22 02:02:08;;;;;;;;;;;;;;;21.09;43.55;101033.88;4869065;28;98517;-71
2023/08/22 02:04:34;;;;;;;;;;;;;;;21.06;43.63;101034.50;4867745;28;99564;-71
2023/08/22 02:07:00;;;;;;;;;;;;;;;21.03;43.48;101035.97;4869599;28;98429;-73
2023/08/22 02:09:27;;;;;;;;;;;;;;;21.01;43.49;101030.00;4866360;28;98560;-70
2023/08/22 02:11:53;;;;;;;;;;;;;;;21.00;43.47;101033.06;4884970;28;98380;-72
2023/08/22 02:14:19;;;;;;;;;;;;;;;20.99;43.48;101029.53;4878637;28;99236;-70
2023/08/22 02:16:46;;;;;;;;;;;;;;;21.00;43.55;101033.88;4881572;28;99917;-70
2023/08/22 02:19:12;;;;;;;;;;;;;;;21.00;43.53;101033.88;4880098;28;98345;-72
2023/08/22 02:21:39;;;;;;;;;;;;;;;20.99;43.37;101037.75;4868831;28;98119;-71
2023/08/22 02:24:06;;;;;;;;;;;;;;;21.00;43.45;101046.78;4861065;28;99677;-72
2023/08/22 02:26:33;;;;;;;;;;;;;;;21.01;43.53;101045.66;4866938;28;97946;-72
2023/08/22 02:29:01;;;;;;;;;;;;;;;21.00;43.51;101036.63;4877647;28;98171;-73
2023/08/22 02:31:28;;;;;;;;;;;;;;;21.01;43.53;101037.41;4879050;28;98464;-70
2023/08/22 02:33:54;;;;;;;;;;;;;;;20.99;43.51;101028.72;4867742;28;98863;-70
2023/08/22 02:36:21;;;;;;;;;;;;;;;20.95;43.57;101023.09;4875670;28;98479;-72
2023/08/22 02:38:48;;;;;;;;;;;;;;;20.91;43.62;101024.88;4843388;28;99459;-71
2023/08/22 02:41:14;;;;;;;;;;;;;;;20.84;43.60;101019.88;4852906;28;98404;-72
2023/08/22 02:43:40;;;;;;;;;;;;;;;20.77;43.66;101024.22;4865559;28;99241;-71
2023/08/22 02:46:07;;;;;;;;;;;;;;;20.71;43.68;101017.28;4881525;28;98178;-73
2023/08/22 02:48:33;;;;;;;;;;;;;;;20.61;43.73;101012.13;4846633;28;98525;-71
2023/08/22 02:50:59;;;;;;;;;;;;;;;20.53;43.75;101003.59;4862722;28;98235;-71
2023/08/22 02:53:26;;;;;;;;;;;;;;;20.43;43.84;100997.59;4864481;28;98399;-71
2023/08/22 02:55:52;;;;;;;;;;;;;;;20.39;43.80;100996.63;4844410;28;99480;-73
2023/08/22 02:58:19;;;;;;;;;;;;;;;20.35;43.91;100988.25;4845027;28;99627;-71
2023/08/22 03:00:46;;;;;;;;;;;;;;;20.32;43.99;100995.19;4882948;28;98228;-71
2023/08/22 03:03:13;;;;;;;;;;;;;;;20.32;43.88;101003.41;4859464;28;98412;-71
2023/08/22 03:05:40;;;;;;;;;;;;;;;20.32;43.80;101000.66;4862402;28;98259;-73
2023/08/22 03:08:07;;;;;;;;;;;;;;;20.34;43.71;100997.59;4848260;28;99792;-71
2023/08/22 03:10:33;;;;;;;;;;;;;;;20.33;43.88;101002.25;4866465;28;98279;-71
2023/08/22 03:13:00;;;;;;;;;;;;;;;20.32;43.73;100997.13;4861327;28;98947;-70
2023/08/22 03:15:26;;;;;;;;;;;;;;;20.31;43.79;101001.75;4867675;28;98143;-70
2023/08/22 03:17:53;;;;;;;;;;;;;;;20.32;43.94;101010.81;4860309;28;98293;-72
2023/08/22 03:20:19;;;;;;;;;;;;;;;20.32;43.88;101010.81;4879386;28;98267;-70
2023/08/22 03:22:45;;;;;;;;;;;;;;;20.34;43.91;101009.34;4868490;28;98528;-73
2023/08/22 03:25:15;;;;;;;;;;;;;;;20.37;43.88;101004.38;4865716;28;117967;-72
2023/08/22 03:27:41;;;;;;;;;;;;;;;20.38;43.85;101006.75;4882314;28;98554;-72
2023/08/22 03:30:08;;;;;;;;;;;;;;;20.40;43.78;101004.53;4880889;28;98853;-72
2023/08/22 03:32:35;;;;;;;;;;;;;;;20.39;43.77;100999.34;4900957;28;99519;-70
2023/08/22 03:35:03;;;;;;;;;;;;;;;20.40;43.96;101003.72;4866038;28;98907;-72
2023/08/22 03:37:29;;;;;;;;;;;;;;;20.40;43.92;101001.00;4863307;28;98312;-72
2023/08/22 03:39:56;;;;;;;;;;;;;;;20.40;43.75;100998.25;4865934;28;98194;-72
2023/08/22 03:42:22;;;;;;;;;;;;;;;20.41;43.82;100989.72;4882211;28;98831;-70
2023/08/22 03:44:48;;;;;;;;;;;;;;;20.42;43.86;100980.34;4883277;28;98246;-72
2023/08/22 03:47:14;;;;;;;;;;;;;;;20.42;43.79;100974.88;4852257;28;98672;-72
2023/08/22 03:49:41;;;;;;;;;;;;;;;20.43;43.88;100978.44;4882117;28;98115;-70
2023/08/22 03:52:07;;;;;;;;;;;;;;;20.45;43.88;100973.44;4861284;28;98189;-70
2023/08/22 03:54:34;;;;;;;;;;;;;;;20.46;43.84;100977.78;4882059;28;99066;-72
2023/08/22 03:57:00;;;;;;;;;;;;;;;20.46;43.75;100975.84;4867695;28;98656;-72
2023/08/22 03:59:27;;;;;;;;;;;;;;;20.46;43.84;100975.84;4848373;28;102575;-73
2023/08/22 04:01:53;;;;;;;;;;;;;;;20.45;43.81;100966.03;4829796;28;102571;-72
2023/08/22 04:04:20;;;;;;;;;;;;;;;20.44;43.79;100961.69;4850535;28;99484;-72
2023/08/22 04:06:46;;;;;;;;;;;;;;;20.43;43.86;100968.28;4848696;28;99573;-73
2023/08/22 04:09:13;;;;;;;;;;;;;;;20.43;43.80;100971.00;4904975;28;97949;-72
2023/08/22 04:11:41;;;;;;;;;;;;;;;20.40;43.82;100966.22;4869376;28;99964;-71
2023/08/22 04:14:07;;;;;;;;;;;;;;;20.38;43.83;100967.63;4864128;28;99560;-71
2023/08/22 04:16:34;;;;;;;;;;;;;;;20.37;43.97;100961.38;4864529;28;99760;-71
2023/08/22 04:19:00;;;;;;;;;;;;;;;20.39;43.85;100964.56;4872048;28;99042;-73
2023/08/22 04:21:27;;;;;;;;;;;;;;;20.41;43.92;100961.53;4868489;28;98223;-71
2023/08/22 04:23:53;;;;;;;;;;;;;;;20.41;43.89;100959.59;4850847;28;98622;-73
2023/08/22 04:26:20;;;;;;;;;;;;;;;20.43;43.87;100951.84;4888407;28;98422;-73
2023/08/22 04:28:46;;;;;;;;;;;;;;;20.45;43.74;100952.34;4886441;28;98055;-70
2023/08/22 04:31:12;;;;;;;;;;;;;;;20.52;43.81;100954.66;4868051;28;99834;-69
2023/08/22 04:33:38;;;;;;;;;;;;;;;20.62;43.79;100954.31;4881488;28;100229;-72
2023/08/22 04:36:06;;;;;;;;;;;;;;;20.71;43.67;100948.81;4886118;28;98188;-72
2023/08/22 04:38:31;;;;;;;;;;;;;;;20.78;43.71;100936.22;4883272;28;98079;-69
2023/08/22 04:40:57;;;;;;;;;;;;;;;20.89;43.75;100949.59;4862027;28;105978;-70
2023/08/22 04:43:23;;;;;;;;;;;;;;;20.93;43.61;100940.41;4882468;28;115589;-69
2023/08/22 04:45:52;;;;;;;;;;;;;;;20.98;43.71;100942.16;4868321;28;106164;-73
2023/08/22 04:48:20;;;;;;;;;;;;;;;21.00;43.68;100939.91;4883942;28;98133;-72
2023/08/22 04:50:47;;;;;;;;;;;;;;;21.03;43.67;100939.28;4878354;28;98427;-73
2023/08/22 04:53:13;;;;;;;;;;;;;;;21.06;43.67;100941.34;4880443;28;98470;-73
2023/08/22 04:55:39;;;;;;;;;;;;;;;21.09;43.71;100943.44;4865335;28;98097;-73
2023/08/22 04:58:06;;;;;;;;;;;;;;;21.16;43.59;100949.22;4874493;28;107243;-73
2023/08/22 05:00:32;;;;;;;;;;;;;;;21.25;43.58;100936.28;4864560;28;98344;-70
2023/08/22 05:02:58;;;;;;;;;;;;;;;21.34;43.71;100941.78;4846165;28;99932;-70
2023/08/22 05:05:24;;;;;;;;;;;;;;;21.42;43.68;100940.94;4881266;28;98111;-72
2023/08/22 05:07:50;;;;;;;;;;;;;;;21.51;43.67;100943.66;4850796;28;100150;-72
2023/08/22 05:10:16;;;;;;;;;;;;;;;21.59;43.45;100939.25;4851232;28;98380;-72
2023/08/22 05:12:42;;;;;;;;;;;;;;;21.66;43.37;100945.84;4879651;28;98793;-69
2023/08/22 05:15:09;;;;;;;;;;;;;;;21.72;43.40;100946.44;4866184;28;98091;-72
2023/08/22 05:17:37;;;;;;;;;;;;;;;21.76;43.49;100939.16;4887242;28;98251;-70
2023/08/22 05:20:06;;;;;;;;;;;;;;;21.80;43.51;100942.84;4864441;28;98297;-70
2023/08/22 05:22:32;;;;;;;;;;;;;;;21.86;43.22;100933.28;4858178;28;100059;-69
2023/08/22 05:24:58;;;;;;;;;;;;;;;21.93;43.33;100946.47;4864091;28;99455;-72
2023/08/22 05:27:25;;;;;;;;;;;;;;;22.00;43.38;100936.56;4885011;28;97971;-72
2023/08/22 05:29:52;;;;;;;;;;;;;;;22.12;43.28;100941.34;4885640;28;98240;-72
2023/08/22 05:32:19;;;;;;;;;;;;;;;22.16;43.24;100936.81;4867032;28;98425;-72
2023/08/22 05:34:45;;;;;;;;;;;;;;;22.24;43.29;100938.72;4861832;28;97916;-69
2023/08/22 05:37:11;;;;;;;;;;;;;;;22.28;43.07;100930.59;4869038;28;98332;-70
2023/08/22 05:39:37;;;;;;;;;;;;;;;22.33;43.14;100933.16;4863079;28;99532;-70
2023/08/22 05:42:04;;;;;;;;;;;;;;;22.34;43.30;100933.97;4864084;28;98721;-72
2023/08/22 05:44:32;;;;;;;;;;;;;;;22.33;43.49;100937.84;4870918;28;98465;-70
2023/08/22 05:46:58;;;;;;;;;;;;;;;22.35;43.35;100932.81;4863307;28;99019;-70
2023/08/22 05:49:24;;;;;;;;;;;;;;;22.37;43.34;100938.78;4873029;28;98495;-72
2023/08/22 05:51:53;;;;;;;;;;;;;;;22.44;43.18;100937.09;4882497;28;100776;-69
2023/08/22 05:54:19;;;;;;;;;;;;;;;22.54;43.22;100944.13;4883598;28;115400;-70
2023/08/22 05:56:45;;;;;;;;;;;;;;;22.64;43.03;100940.97;4868622;28;98008;-69
2023/08/22 05:59:11;;;;;;;;;;;;;;;22.71;43.06;100932.97;4902164;28;98735;-69
2023/08/22 06:01:37;;;;;;;;;;;;;;;22.79;43.09;100926.59;4855965;28;97945;-71
2023/08/22 06:04:04;;;;;;;;;;;;;;;22.90;42.98;100928.91;4865419;28;98035;-72
2023/08/22 06:06:30;;;;;;;;;;;;;;;23.01;43.08;100919.13;4860219;28;97942;-70
2023/08/22 06:08:57;;;;;;;;;;;;;;;23.12;42.96;100917.53;4883253;28;98039;-72
2023/08/22 06:11:23;;;;;;;;;;;;;;;23.24;42.75;100917.56;4868957;28;98631;-70
2023/08/22 06:13:50;;;;;;;;;;;;;;;23.37;42.61;100917.56;4866762;28;98476;-69
2023/08/22 06:16:16;;;;;;;;;;;;;;;23.51;42.79;100920.78;4883312;28;98593;-69
2023/08/22 06:18:42;;;;;;;;;;;;;;;23.67;42.51;100912.69;4886101;28;122331;-72
2023/08/22 06:21:08;;;;;;;;;;;;;;;23.83;42.60;100912.78;4847268;28;99763;-69
2023/08/22 06:23:34;;;;;;;;;;;;;;;24.02;42.63;100907.47;4883731;28;99137;-72
2023/08/22 06:26:01;;;;;;;;;;;;;;;24.19;42.45;100906.38;4866399;28;103382;-72
2023/08/22 06:28:26;;;;;;;;;;;;;;;24.39;42.07;100907.38;4850015;28;100080;-70
2023/08/22 06:30:53;;;;;;;;;;;;;;;24.61;42.27;100895.00;4866950;28;98709;-71
2023/08/22 06:33:19;;;;;;;;;;;;;;;24.80;41.94;100903.41;4847114;28;98121;-70
2023/08/22 06:35:47;;;;;;;;;;;;;;;25.00;41.80;100900.75;4870168;28;98095;-72
2023/08/22 06:38:13;;;;;;;;;;;;;;;25.20;41.79;100902.50;4888536;28;99869;-70
2023/08/22 06:40:39;;;;;;;;;;;;;;;25.40;41.74;100897.84;4866826;28;98101;-70
2023/08/22 06:43:06;;;;;;;;;;;;;;;25.62;41.52;100891.69;4878917;28;98263;-72
2023/08/22 06:45:32;;;;;;;;;;;;;;;25.93;41.30;100895.53;4886830;28;98672;-73
2023/08/22 06:47:59;;;;;;;;;;;;;;;26.61;40.78;100892.25;4901142;28;98680;-72
2023/08/22 06:50:25;;;;;;;;;;;;;;;27.84;40.14;100895.88;4884509;28;98131;-69
2023/08/22 06:52:51;;;;;;;;;;;;;;;29.30;39.04;100893.94;4880502;28;98253;-73
2023/08/22 06:55:18;;;;;;;;;;;;;;;30.72;38.29;100899.44;4868297;28;98457;-73
2023/08/22 06:57:45;;;;;;;;;;;;;;;32.16;37.20;100898.19;4885631;28;98345;-72
2023/08/22 07:00:15;;;;;;;;;;;;;;;33.81;36.55;100900.59;4865618;28;99649;-70
2023/08/22 07:02:41;;;;;;;;;;;;;;;35.60;35.37;100909.22;4870367;28;98345;-70
2023/08/22 07:05:09;;;;;;;;;;;;;;;37.47;34.22;100901.09;4869383;28;98194;-70
2023/08/22 07:07:36;;;;;;;;;;;;;;;39.12;33.52;100911.84;4868417;28;98281;-70
2023/08/22 07:10:04;;;;;;;;;;;;;;;40.17;32.88;100909.78;4862161;28;97873;-70
2023/08/22 07:12:30;;;;;;;;;;;;;;;38.72;34.42;100894.63;4868781;28;105062;-72
2023/08/22 07:14:56;;;;;;;;;;;;;;;37.52;35.79;100878.84;4855395;28;98688;-73
2023/08/22 07:17:22;;;;;;;;;;;;;;;36.67;36.92;100878.97;4869222;28;99083;-73
2023/08/22 07:19:49;;;;;;;;;;;;;;;36.15;37.46;100876.88;4853602;28;98091;-72
2023/08/22 07:22:15;;;;;;;;;;;;;;;35.81;38.00;100869.56;4851132;28;99168;-70
2023/08/22 07:24:41;;;;;;;;;;;;;;;35.73;37.87;100865.34;4864383;28;98264;-70
2023/08/22 07:27:10;;;;;;;;;;;;;;;35.52;38.11;100851.72;4884840;28;98667;-73
2023/08/22 07:29:36;;;;;;;;;;;;;;;35.19;38.39;100845.13;4867356;28;100193;-72
2023/08/22 07:32:03;;;;;;;;;;;;;;;35.17;38.37;100848.31;4882525;28;98487;-70
2023/08/22 07:34:29;;;;;;;;;;;;;;;35.05;38.55;100852.53;4869249;28;98207;-70
2023/08/22 07:36:55;;;;;;;;;;;;;;;34.77;38.89;100847.38;4884670;28;97960;-70
2023/08/22 07:39:22;;;;;;;;;;;;;;;34.66;39.00;100848.38;4878286;28;98401;-70
2023/08/22 07:41:48;;;;;;;;;;;;;;;34.68;38.87;100842.34;4869922;28;98078;-72
2023/08/22 07:44:14;;;;;;;;;;;;;;;34.94;38.69;100843.53;4886281;28;98101;-70
2023/08/22 07:46:40;;;;;;;;;;;;;;;35.05;38.61;100844.13;4867208;28;97978;-73
2023/08/22 07:49:07;;;;;;;;;;;;;;;34.90;38.89;100837.97;4866582;28;98043;-71
2023/08/22 07:51:34;;;;;;;;;;;;;;;34.81;39.05;100842.53;4882391;28;98101;-73
2023/08/22 07:54:01;;;;;;;;;;;;;;;34.88;38.86;100850.81;4865588;28;98339;-72
2023/08/22 07:56:28;;;;;;;;;;;;;;;34.86;39.42;100845.66;4862410;28;99169;-73
2023/08/22 07:58:54;;;;;;;;;;;;;;;34.80;39.21;100843.75;4880805;28;98245;-70
2023/08/22 08:01:21;;;;;;;;;;;;;;;34.82;39.14;100846.91;4850475;28;100227;-72
2023/08/22 08:03:47;;;;;;;;;;;;;;;34.87;39.00;100844.44;4867003;28;98449;-73
2023/08/22 08:06:13;;;;;;;;;;;;;;;35.04;38.79;100845.34;4884138;28;98308;-69
2023/08/22 08:08:39;;;;;;;;;;;;;;;35.47;38.59;100838.97;4868838;28;97932;-71
2023/08/22 08:11:05;;;;;;;;;;;;;;;36.33;37.66;100846.44;4861098;28;97975;-74
2023/08/22 08:13:32;;;;;;;;;;;;;;;36.99;37.14;100838.91;4881236;28;98442;-68
2023/08/22 08:15:58;;;;;;;;;;;;;;;37.78;36.26;100843.19;4870532;28;97990;-75
2023/08/22 08:18:24;;;;;;;;;;;;;;;38.49;36.46;100842.28;4870910;28;98518;-69
2023/08/22 08:20:51;;;;;;;;;;;;;;;39.06;36.08;100845.25;4870511;28;99009;-69
2023/08/22 08:23:17;;;;;;;;;;;;;;;39.88;35.50;100840.28;4864490;28;98811;-74
2023/08/22 08:25:43;;;;;;;;;;;;;;;40.28;35.43;100833.91;4870632;28;98401;-70
2023/08/22 08:28:09;;;;;;;;;;;;;;;40.14;35.72;100835.28;4867555;28;99613;-69
2023/08/22 08:30:35;;;;;;;;;;;;;;;38.97;37.08;100823.41;4882310;28;98800;-74
2023/08/22 08:33:03;;;;;;;;;;;;;;;39.49;36.71;100822.00;4848956;28;98512;-70
2023/08/22 08:35:30;;;;;;;;;;;;;;;40.65;35.54;100820.75;4862969;28;98739;-70
2023/08/22 08:37:57;;;;;;;;;;;;;;;41.88;34.41;100817.00;4898138;28;98209;-74
2023/08/22 08:40:23;;;;;;;;;;;;;;;42.67;34.07;100818.88;4884104;28;100670;-70
2023/08/22 08:42:49;;;;;;;;;;;;;;;43.41;33.82;100821.94;4860953;28;97891;-74
2023/08/22 08:45:16;;;;;;;;;;;;;;;43.23;34.28;100812.31;4866770;28;101987;-69
2023/08/22 08:47:42;;;;;;;;;;;;;;;43.31;34.50;100807.84;4883365;28;98024;-74
2023/08/22 08:50:08;;;;;;;;;;;;;;;43.85;34.37;100804.94;4879830;28;98896;-74
2023/08/22 08:52:35;;;;;;;;;;;;;;;44.48;33.90;100804.63;4866006;28;98337;-73
2023/08/22 08:55:04;;;;;;;;;;;;;;;44.51;34.13;100797.97;4848445;28;98216;-68
2023/08/22 08:57:31;;;;;;;;;;;;;;;44.79;33.93;100809.72;4876330;28;98158;-73
2023/08/22 09:00:00;;;;;;;;;;;;;;;45.04;34.11;100802.50;4883963;28;98281;-75
2023/08/22 09:02:31;;;;;;;;;;;;;;;44.83;34.29;100796.84;4882862;28;98259;-75
2023/08/22 09:04:57;;;;;;;;;;;;;;;45.36;34.08;100805.47;4881925;28;98564;-68
2023/08/22 09:07:23;;;;;;;;;;;;;;;45.30;33.81;100800.50;4864365;28;98420;-68
2023/08/22 09:09:49;;;;;;;;;;;;;;;45.44;33.93;100798.09;4864059;28;99667;-68
2023/08/22 09:12:15;;;;;;;;;;;;;;;44.36;34.96;100797.25;4851703;28;98326;-73
2023/08/22 09:14:45;;;;;;;;;;;;;;;42.38;37.15;100789.13;4899168;28;99931;-74
2023/08/22 09:17:16;;;;;;;;;;;;;;;41.11;38.05;100791.78;4881696;28;98038;-68
2023/08/22 09:19:43;;;;;;;;;;;;;;;42.52;36.09;100788.41;4857275;28;98091;-75
2023/08/22 09:22:12;;;;;;;;;;;;;;;43.47;35.22;100794.47;4878717;28;98435;-69
2023/08/22 09:24:38;;;;;;;;;;;;;;;43.76;35.01;100790.88;4842360;28;98245;-74
2023/08/22 09:27:05;;;;;;;;;;;;;;;43.68;35.16;100784.03;4856547;28;109036;-69
2023/08/22 09:29:34;;;;;;;;;;;;;;;43.72;35.49;100771.19;4864053;28;98146;-74
2023/08/22 09:32:04;;;;;;;;;;;;;;;44.04;35.08;100772.25;4879587;28;98142;-69
2023/08/22 09:34:31;;;;;;;;;;;;;;;44.88;34.65;100778.31;4860788;28;98193;-75
2023/08/22 09:36:58;;;;;;;;;;;;;;;45.94;33.95;100767.22;4857253;28;98360;-74
2023/08/22 09:39:25;;;;;;;;;;;;;;;46.90;32.91;100773.44;4864428;28;98094;-69
2023/08/22 09:41:53;;;;;;;;;;;;;;;47.81;32.49;100775.16;4843210;28;98274;-74
2023/08/22 09:44:23;;;;;;;;;;;;;;;48.53;32.01;100768.50;4875552;28;97962;-74
2023/08/22 09:46:50;;;;;;;;;;;;;;;48.92;32.03;100759.75;4862756;28;98094;-74
2023/08/22 09:49:16;;;;;;;;;;;;;;;49.45;31.78;100765.38;4856361;28;98273;-70
2023/08/22 09:51:44;;;;;;;;;;;;;;;49.79;31.52;100756.50;4844458;28;98460;-70
2023/08/22 09:54:10;;;;;;;;;;;;;;;50.17;31.39;100754.56;4862820;28;98046;-69
2023/08/22 09:56:37;;;;;;;;;;;;;;;50.46;31.73;100750.03;4862796;28;98002;-69
2023/08/22 09:59:03;;;;;;;;;;;;;;;50.81;31.29;100749.06;4859729;28;98127;-70
2023/08/22 10:01:29;;;;;;;;;;;;;;;51.13;31.63;100748.34;4860773;28;99318;-75
2023/08/22 10:03:58;;;;;;;;;;;;;;;51.02;31.37;100740.72;4847027;28;99683;-76
2023/08/22 10:06:29;;;;;;;;;;;;;;;50.90;31.58;100738.53;4859364;28;99623;-75
2023/08/22 10:08:55;;;;;;;;;;;;;;;50.03;32.52;100739.34;4841736;28;100083;-70
2023/08/22 10:11:21;;;;;;;;;;;;;;;50.38;32.33;100742.59;4844214;28;98360;-70
2023/08/22 10:13:47;;;;;;;;;;;;;;;50.52;31.91;100733.56;4860442;28;99109;-69
2023/08/22 10:16:13;;;;;;;;;;;;;;;50.39;31.79;100724.91;4862294;28;98129;-70
2023/08/22 10:18:40;;;;;;;;;;;;;;;50.24;32.56;100730.28;4881644;28;99217;-80
2023/08/22 10:21:07;;;;;;;;;;;;;;;50.30;32.15;100733.84;4833947;28;98101;-70
2023/08/22 10:23:52;;;;;;;;;;;;;;;50.37;32.57;100732.47;4862230;28;98169;-71
2023/08/22 10:26:22;;;;;;;;;;;;;;;50.33;32.46;100733.53;4880414;28;98213;-78
2023/08/22 10:29:17;;;;;;;;;;;;;;;50.50;32.30;100724.72;4862824;28;98616;-71
2023/08/22 10:32:06;;;;;;;;;;;;;;;50.58;32.23;100722.84;4860126;28;98385;-71
2023/08/22 10:34:38;;;;;;;;;;;;;;;51.00;32.11;100720.41;4862255;28;98325;-79
2023/08/22 10:37:14;;;;;;;;;;;;;;;49.37;33.41;100725.13;4881782;28;100449;-71
2023/08/22 10:39:41;;;;;;;;;;;;;;;49.57;33.30;100718.22;4849815;28;105339;-70
2023/08/22 10:42:21;;;;;;;;;;;;;;;48.25;34.41;100714.31;4847743;28;98184;-78
2023/08/22 10:44:57;;;;;;;;;;;;;;;46.79;35.31;100717.16;4850450;28;98221;-79
2023/08/22 10:47:27;;;;;;;;;;;;;;;45.48;36.66;100714.09;4864364;28;98168;-70
2023/08/22 10:49:55;;;;;;;;;;;;;;;44.35;37.32;100716.97;4860850;28;98645;-79
2023/08/22 10:52:47;;;;;;;;;;;;;;;43.46;38.04;100719.97;4851009;28;98433;-70
2023/08/22 10:55:14;;;;;;;;;;;;;;;42.92;37.96;100716.38;4881678;28;98060;-70
2023/08/22 10:57:47;;;;;;;;;;;;;;;43.34;36.94;100724.63;4867973;28;99267;-78
2023/08/22 11:00:19;;;;;;;;;;;;;;;43.05;37.38;100719.72;4863817;28;98239;-78
2023/08/22 11:02:47;;;;;;;;;;;;;;;43.04;37.16;100718.16;4866048;28;98187;-79
2023/08/22 11:05:15;;;;;;;;;;;;;;;43.09;36.75;100711.06;4864403;28;98090;-78
2023/08/22 11:07:44;;;;;;;;;;;;;;;43.88;35.58;100726.59;4862925;28;99814;-79
2023/08/22 11:10:16;;;;;;;;;;;;;;;43.45;36.13;100723.28;4865889;28;98754;-70
2023/08/22 11:12:45;;;;;;;;;;;;;;;43.78;35.74;100725.88;4841647;28;98215;-70
2023/08/22 11:15:14;;;;;;;;;;;;;;;43.92;35.71;100727.94;4863060;28;98388;-79
2023/08/22 11:17:41;;;;;;;;;;;;;;;43.75;35.95;100719.16;4859081;28;98647;-71
2023/08/22 11:20:12;;;;;;;;;;;;;;;43.08;36.22;100721.63;4873670;28;98105;-71
2023/08/22 11:22:42;;;;;;;;;;;;;;;42.17;37.29;100726.66;4882647;28;98330;-71
2023/08/22 11:25:09;;;;;;;;;;;;;;;41.85;37.62;100730.25;4886713;28;98394;-79
2023/08/22 11:27:38;;;;;;;;;;;;;;;42.17;36.98;100737.97;4867674;28;98207;-79
2023/08/22 11:30:06;;;;;;;;;;;;;;;42.75;35.99;100732.25;4900483;28;98420;-71
2023/08/22 11:32:34;;;;;;;;;;;;;;;43.12;35.87;100733.53;4883903;28;97870;-71
2023/08/22 11:35:10;;;;;;;;;;;;;;;43.30;35.63;100738.22;4887925;28;97880;-79
2023/08/22 11:37:38;;;;;;;;;;;;;;;44.15;34.88;100740.41;4866002;28;98174;-79
2023/08/22 11:40:04;;;;;;;;;;;;;;;43.12;36.11;100732.75;4882196;28;98263;-71
2023/08/22 11:42:33;;;;;;;;;;;;;;;42.38;36.96;100718.38;4881254;28;98520;-79
2023/08/22 11:45:17;;;;;;;;;;;;;;;42.16;36.90;100718.63;4867183;28;98746;-70
2023/08/22 11:47:47;;;;;;;;;;;;;;;42.10;36.94;100727.00;4899667;28;99625;-79
2023/08/22 11:50:14;;;;;;;;;;;;;;;42.48;36.29;100722.69;4851958;28;98003;-79
2023/08/22 11:52:47;;;;;;;;;;;;;;;42.73;36.06;100721.44;4903394;28;97958;-79
2023/08/22 11:55:27;;;;;;;;;;;;;;;42.94;35.69;100722.34;4882014;28;99086;-79
2023/08/22 11:58:00;;;;;;;;;;;;;;;43.00;35.78;100726.06;4876258;28;98026;-70
2023/08/22 12:00:35;;;;;;;;;;;;;;;42.74;36.09;100713.72;4883179;28;104282;-79
2023/08/22 12:03:05;;;;;;;;;;;;;;;41.74;37.15;100710.16;4877798;28;98056;-70
2023/08/22 12:05:31;;;;;;;;;;;;;;;41.04;37.76;100715.81;4864060;28;98088;-80
2023/08/22 12:07:58;;;;;;;;;;;;;;;40.45;38.09;100719.50;4880359;28;98415;-80
2023/08/22 12:10:24;;;;;;;;;;;;;;;39.76;38.19;100709.41;4850802;28;98365;-80
2023/08/22 12:12:50;;;;;;;;;;;;;;;39.72;38.27;100708.75;4880857;28;98618;-80
2023/08/22 12:15:16;;;;;;;;;;;;;;;39.85;37.84;100719.94;4869529;28;99954;-70
2023/08/22 12:17:42;;;;;;;;;;;;;;;39.74;37.88;100723.19;4861275;28;110180;-80
2023/08/22 12:20:09;;;;;;;;;;;;;;;40.54;36.87;100718.72;4885813;28;98132;-80
2023/08/22 12:22:35;;;;;;;;;;;;;;;40.44;37.11;100728.44;4883447;28;98969;-70
2023/08/22 12:25:01;;;;;;;;;;;;;;;40.23;37.34;100721.66;4859633;28;98148;-70
2023/08/22 12:27:28;;;;;;;;;;;;;;;40.08;37.46;100715.78;4883452;28;98615;-71
2023/08/22 12:29:54;;;;;;;;;;;;;;;39.88;37.55;100713.38;4869617;28;98218;-80
2023/08/22 12:32:20;;;;;;;;;;;;;;;39.82;37.51;100722.91;4864654;28;98302;-71
2023/08/22 12:34:46;;;;;;;;;;;;;;;39.90;37.57;100699.59;4900852;28;98214;-79
2023/08/22 12:37:12;;;;;;;;;;;;;;;39.92;37.29;100701.94;4866312;28;98684;-79